Time;durP1;ratioP1;P1;durP2;ratioP2;P2;SDS_P1;SDS_P2;PMS_P1;PMS_P2;Temp;Humidity;BMP_temperature;BMP_pressure;BME280_temperature;BME280_humidity;BME280_pressure;Samples;Min_cycle;Max_cycle;Signal;HPM_P1;HPM_P2
2023/09/30 00:02:14;;;;;;;3.77;2.60;;;20.00;99.90;;;;;;5072637;28;20535;-82
2023/09/30 00:04:41;;;;;;;3.07;2.77;;;20.00;99.90;;;;;;5059433;28;20471;-82
2023/09/30 00:07:09;;;;;;;12.97;11.40;;;19.90;99.90;;;;;;5057154;28;20490;-87
2023/09/30 00:09:37;;;;;;;25.63;21.90;;;19.90;99.90;;;;;;5073699;28;20496;-84
2023/09/30 00:12:04;;;;;;;15.73;14.13;;;19.90;99.90;;;;;;5071803;28;20466;-87
2023/09/30 00:14:32;;;;;;;9.27;7.27;;;19.90;99.90;;;;;;5072755;28;20474;-87
2023/09/30 00:16:59;;;;;;;4.80;2.90;;;19.90;99.90;;;;;;5072414;28;20462;-86
2023/09/30 00:19:26;;;;;;;5.40;3.70;;;19.80;99.90;;;;;;5063648;28;20469;-87
2023/09/30 00:21:55;;;;;;;6.83;3.40;;;19.70;99.90;;;;;;5072798;28;20473;-82
2023/09/30 00:24:23;;;;;;;6.43;5.13;;;19.70;99.90;;;;;;5072023;28;20541;-82
2023/09/30 00:26:52;;;;;;;226.93;167.10;;;19.70;99.90;;;;;;5072596;28;20466;-81
2023/09/30 00:29:19;;;;;;;23.03;19.50;;;19.60;99.90;;;;;;5072033;28;20855;-81
2023/09/30 00:31:45;;;;;;;120.93;89.40;;;19.60;99.90;;;;;;5072494;28;20588;-82
2023/09/30 00:34:15;;;;;;;24.57;17.17;;;19.60;99.90;;;;;;5072164;28;20462;-83
2023/09/30 00:36:42;;;;;;;36.87;29.03;;;19.60;99.90;;;;;;5072832;28;20474;-83
2023/09/30 00:39:10;;;;;;;26.97;19.60;;;19.50;99.90;;;;;;5061643;28;20553;-88
2023/09/30 00:41:40;;;;;;;14.00;10.93;;;19.50;99.90;;;;;;5072129;28;20486;-88
2023/09/30 00:44:10;;;;;;;32.93;21.43;;;19.50;99.90;;;;;;5072115;28;20478;-87
2023/09/30 00:46:41;;;;;;;49.77;38.87;;;19.40;99.90;;;;;;5064442;28;20471;-82
2023/09/30 00:49:11;;;;;;;18.40;12.60;;;19.40;99.90;;;;;;5051976;28;20485;-87
2023/09/30 00:51:41;;;;;;;14.87;10.53;;;19.30;99.90;;;;;;5056285;28;20520;-82
2023/09/30 00:54:09;;;;;;;10.93;6.57;;;19.30;99.90;;;;;;5054879;28;20482;-82
2023/09/30 00:56:45;;;;;;;12.00;8.47;;;19.30;99.90;;;;;;5055994;28;20469;-82
2023/09/30 00:59:13;;;;;;;14.10;8.23;;;19.20;99.90;;;;;;5055634;28;20462;-87
2023/09/30 01:08:17;;;;;;;51.40;38.83;;;19.20;99.90;;;;;;5072298;28;20535;-87
2023/09/30 01:10:45;;;;;;;17.13;12.70;;;19.10;99.90;;;;;;5075324;28;20462;-86
2023/09/30 01:13:13;;;;;;;9.63;6.50;;;19.10;99.90;;;;;;5075218;28;20511;-87
2023/09/30 01:15:41;;;;;;;8.47;5.80;;;19.10;99.90;;;;;;5075675;28;20481;-86
2023/09/30 01:18:08;;;;;;;5.97;3.50;;;19.00;99.90;;;;;;5074292;28;22759;-85
2023/09/30 01:20:36;;;;;;;4.27;2.20;;;19.00;99.90;;;;;;5075702;28;20466;-81
2023/09/30 01:23:04;;;;;;;4.47;2.97;;;18.90;99.90;;;;;;5075188;28;20458;-86
2023/09/30 01:25:33;;;;;;;3.53;2.60;;;18.90;99.90;;;;;;5074367;28;20480;-81
2023/09/30 01:28:06;;;;;;;7.47;3.10;;;18.80;99.90;;;;;;5075011;28;20485;-85
2023/09/30 01:30:33;;;;;;;4.40;3.10;;;18.80;99.90;;;;;;5065125;28;20504;-86
2023/09/30 01:33:09;;;;;;;10.97;2.80;;;18.80;99.90;;;;;;5064035;28;20454;-81
2023/09/30 01:35:36;;;;;;;6.37;3.30;;;18.70;99.90;;;;;;5074243;28;20971;-82
2023/09/30 01:38:08;;;;;;;9.47;3.17;;;18.70;99.90;;;;;;5074978;28;20470;-87
2023/09/30 01:40:35;;;;;;;5.97;2.77;;;18.60;99.90;;;;;;5075120;28;20484;-82
2023/09/30 01:43:02;;;;;;;5.90;3.03;;;18.50;99.90;;;;;;5073583;28;20458;-87
2023/09/30 01:45:29;;;;;;;3.50;2.60;;;18.50;99.90;;;;;;5074680;28;20524;-84
2023/09/30 01:47:56;;;;;;;5.10;2.73;;;18.40;99.90;;;;;;5073963;28;20466;-83
2023/09/30 01:50:23;;;;;;;8.93;4.07;;;18.40;99.90;;;;;;5075090;28;20483;-83
2023/09/30 01:52:50;;;;;;;9.47;4.77;;;18.40;99.90;;;;;;5073817;28;20536;-85
2023/09/30 01:55:19;;;;;;;6.70;3.47;;;18.30;99.90;;;;;;5074639;28;20471;-85
2023/09/30 01:57:46;;;;;;;5.50;2.60;;;18.30;99.90;;;;;;5074040;28;20459;-83
2023/09/30 02:00:13;;;;;;;7.83;4.23;;;18.30;99.90;;;;;;5074151;28;20498;-85
2023/09/30 02:02:41;;;;;;;6.80;3.50;;;18.20;99.90;;;;;;5073477;28;20536;-83
2023/09/30 02:05:12;;;;;;;5.13;3.87;;;18.20;99.90;;;;;;5074613;28;20462;-82
2023/09/30 02:07:44;;;;;;;68.70;52.97;;;18.10;99.90;;;;;;5074450;28;20470;-85
2023/09/30 02:10:11;;;;;;;26.80;20.70;;;18.10;99.90;;;;;;5073510;28;20469;-84
2023/09/30 02:12:42;;;;;;;13.93;7.30;;;18.10;99.90;;;;;;5074159;28;20480;-86
2023/09/30 02:15:28;;;;;;;7.37;5.50;;;18.00;99.90;;;;;;5072966;28;20483;-83
2023/09/30 02:17:55;;;;;;;9.60;5.17;;;18.00;99.90;;;;;;5073407;28;20810;-82
2023/09/30 02:20:25;;;;;;;14.23;8.73;;;18.00;99.90;;;;;;5074514;28;20482;-85
2023/09/30 02:22:52;;;;;;;6.10;3.87;;;17.90;99.90;;;;;;5073221;28;20462;-82
2023/09/30 02:25:25;;;;;;;13.53;4.90;;;17.90;99.90;;;;;;5073870;28;20483;-84
2023/09/30 02:28:07;;;;;;;6.33;3.33;;;17.90;99.90;;;;;;5072101;28;20469;-84
2023/09/30 02:30:34;;;;;;;4.73;2.87;;;17.80;99.90;;;;;;5073518;28;20471;-85
2023/09/30 02:33:15;;;;;;;6.33;4.10;;;17.80;99.90;;;;;;5074116;28;20458;-84
2023/09/30 02:35:45;;;;;;;7.30;3.80;;;17.80;99.90;;;;;;5072380;28;20470;-83
2023/09/30 02:38:12;;;;;;;10.77;3.97;;;17.70;99.90;;;;;;5074208;28;20523;-83
2023/09/30 02:40:40;;;;;;;8.10;5.10;;;17.70;99.90;;;;;;5073415;28;20477;-85
2023/09/30 02:43:07;;;;;;;8.50;4.30;;;17.60;99.90;;;;;;5073561;28;20466;-83
2023/09/30 02:45:47;;;;;;;10.30;4.23;;;17.70;99.90;;;;;;5072508;28;20478;-85
2023/09/30 02:48:14;;;;;;;8.83;4.90;;;17.60;99.90;;;;;;5073552;28;20478;-86
2023/09/30 02:50:45;;;;;;;9.80;5.37;;;17.60;99.90;;;;;;5073040;28;20466;-85
2023/09/30 02:53:12;;;;;;;8.63;3.50;;;17.60;99.90;;;;;;5073463;28;20952;-83
2023/09/30 02:55:40;;;;;;;9.47;3.50;;;17.50;99.90;;;;;;5072793;28;20470;-84
2023/09/30 02:58:08;;;;;;;5.80;4.20;;;17.50;99.90;;;;;;5073123;28;20491;-84
2023/09/30 03:00:37;;;;;;;10.30;6.23;;;17.50;99.90;;;;;;5072185;28;20462;-85
2023/09/30 03:03:05;;;;;;;11.47;4.97;;;17.50;99.90;;;;;;5073468;28;20541;-85
2023/09/30 03:05:33;;;;;;;11.87;4.37;;;17.50;99.90;;;;;;5073718;28;20515;-85
2023/09/30 03:08:01;;;;;;;11.83;5.10;;;17.40;99.90;;;;;;5072919;28;20470;-82
2023/09/30 03:10:28;;;;;;;8.93;3.83;;;17.40;99.90;;;;;;5073129;28;20550;-84
2023/09/30 03:12:56;;;;;;;11.70;5.27;;;17.40;99.90;;;;;;5072938;28;20474;-85
2023/09/30 03:15:54;;;;;;;9.73;4.10;;;17.30;99.90;;;;;;5073333;28;20544;-85
2023/09/30 03:18:26;;;;;;;6.83;3.87;;;17.30;99.90;;;;;;5068371;28;20546;-85
2023/09/30 03:21:01;;;;;;;101.67;81.30;;;17.30;99.90;;;;;;5052285;28;20942;-85
2023/09/30 03:23:33;;;;;;;18.13;12.53;;;17.30;99.90;;;;;;5053427;28;20471;-83
2023/09/30 03:26:00;;;;;;;11.40;6.33;;;17.40;99.90;;;;;;5052463;28;20465;-83
2023/09/30 03:28:28;;;;;;;12.50;4.87;;;17.40;99.90;;;;;;5053298;28;20467;-86
2023/09/30 03:30:56;;;;;;;6.87;4.67;;;17.40;99.90;;;;;;5051612;28;20463;-84
2023/09/30 03:33:25;;;;;;;7.83;4.57;;;17.40;99.90;;;;;;5051451;28;20474;-85
2023/09/30 03:35:52;;;;;;;11.70;5.07;;;17.30;99.90;;;;;;5051257;28;20459;-83
2023/09/30 03:38:20;;;;;;;6.90;3.60;;;17.30;99.90;;;;;;5052007;28;20467;-83
2023/09/30 03:40:47;;;;;;;10.67;4.17;;;17.30;99.90;;;;;;5050232;28;20498;-84
2023/09/30 03:43:17;;;;;;;4.50;3.00;;;17.30;99.90;;;;;;5033660;28;20459;-83
2023/09/30 03:45:45;;;;;;;12.97;5.57;;;17.30;99.90;;;;;;5052172;28;20487;-84
2023/09/30 03:48:14;;;;;;;9.83;5.03;;;17.20;99.90;;;;;;5053019;28;20505;-83
2023/09/30 03:50:45;;;;;;;10.87;4.50;;;17.20;99.90;;;;;;5052162;28;20478;-83
2023/09/30 03:53:12;;;;;;;6.97;3.23;;;17.20;99.90;;;;;;5052912;28;20462;-83
2023/09/30 03:55:39;;;;;;;9.03;4.70;;;17.10;99.90;;;;;;5052059;28;20598;-84
2023/09/30 03:58:10;;;;;;;7.50;3.90;;;17.20;99.90;;;;;;5052578;28;20463;-83
2023/09/30 04:00:39;;;;;;;10.00;4.37;;;17.20;99.90;;;;;;5053160;28;20835;-83
2023/09/30 04:03:06;;;;;;;10.43;5.43;;;17.10;99.90;;;;;;5052660;28;20487;-84
2023/09/30 04:05:36;;;;;;;11.93;4.37;;;17.10;99.90;;;;;;5052117;28;20478;-83
2023/09/30 04:08:05;;;;;;;10.03;5.50;;;17.10;99.90;;;;;;5052372;28;25023;-85
2023/09/30 04:10:32;;;;;;;14.13;6.13;;;17.10;99.90;;;;;;5053464;28;20467;-85
2023/09/30 04:12:59;;;;;;;9.90;5.27;;;17.10;99.90;;;;;;5051429;28;20490;-84
2023/09/30 04:15:30;;;;;;;14.63;5.27;;;17.10;99.90;;;;;;5052776;28;20471;-84
2023/09/30 04:17:57;;;;;;;15.03;6.67;;;17.10;99.90;;;;;;5051888;28;20537;-84
2023/09/30 04:20:26;;;;;;;11.53;4.27;;;17.00;99.90;;;;;;5052657;28;20471;-83
2023/09/30 04:22:57;;;;;;;9.30;4.63;;;17.00;99.90;;;;;;5052031;28;20494;-85
2023/09/30 04:25:33;;;;;;;8.97;4.30;;;17.00;99.90;;;;;;5055471;28;20486;-84
2023/09/30 04:28:00;;;;;;;6.43;4.97;;;16.90;99.90;;;;;;5056009;28;20557;-85
2023/09/30 04:30:27;;;;;;;8.33;4.30;;;16.90;99.90;;;;;;5056084;28;20478;-83
2023/09/30 04:32:54;;;;;;;7.70;4.67;;;16.90;99.90;;;;;;5056173;28;20548;-85
2023/09/30 04:35:21;;;;;;;9.00;3.87;;;16.80;99.90;;;;;;5056664;28;20542;-85
2023/09/30 04:37:48;;;;;;;8.17;4.17;;;16.80;99.90;;;;;;5055596;28;20517;-86
2023/09/30 04:40:18;;;;;;;10.60;4.67;;;16.80;99.90;;;;;;5046494;28;21018;-85
2023/09/30 04:42:46;;;;;;;8.10;3.77;;;16.80;99.90;;;;;;5055853;28;20968;-85
2023/09/30 04:45:16;;;;;;;10.50;5.03;;;16.80;99.90;;;;;;5055487;28;20559;-85
2023/09/30 04:47:48;;;;;;;6.00;3.50;;;16.70;99.90;;;;;;5056406;28;20968;-83
2023/09/30 04:50:16;;;;;;;5.90;3.67;;;16.70;99.90;;;;;;5055496;28;21000;-84
2023/09/30 04:52:44;;;;;;;7.40;3.70;;;16.70;99.90;;;;;;5046087;28;20550;-85
2023/09/30 04:55:15;;;;;;;8.97;4.47;;;16.70;99.90;;;;;;5037455;28;20490;-82
2023/09/30 04:57:47;;;;;;;6.80;4.27;;;16.70;99.90;;;;;;5055417;28;20527;-84
2023/09/30 05:00:17;;;;;;;5.10;3.27;;;16.70;99.90;;;;;;5055778;28;20455;-83
2023/09/30 05:02:45;;;;;;;10.00;4.37;;;16.60;99.90;;;;;;5055980;28;20467;-85
2023/09/30 05:05:14;;;;;;;6.63;3.50;;;16.60;99.90;;;;;;5055232;28;20921;-84
2023/09/30 05:07:41;;;;;;;12.27;5.57;;;16.60;99.90;;;;;;5055859;28;20497;-83
2023/09/30 05:10:11;;;;;;;9.70;4.87;;;16.60;99.90;;;;;;5055355;28;20474;-86
2023/09/30 05:12:45;;;;;;;6.40;4.10;;;16.60;99.90;;;;;;5055677;28;20471;-83
2023/09/30 05:15:22;;;;;;;7.07;3.70;;;16.60;99.90;;;;;;5051917;28;20491;-85
2023/09/30 05:17:50;;;;;;;7.20;3.40;;;16.60;99.90;;;;;;5056118;28;20478;-83
2023/09/30 05:20:18;;;;;;;10.43;5.70;;;16.60;99.90;;;;;;5055270;28;20471;-85
2023/09/30 05:22:46;;;;;;;13.03;4.70;;;16.50;99.90;;;;;;5055029;28;21056;-85
2023/09/30 05:25:15;;;;;;;8.93;4.13;;;16.60;99.90;;;;;;5055653;28;20486;-84
2023/09/30 05:27:42;;;;;;;9.03;4.67;;;16.60;99.90;;;;;;5054610;28;20479;-84
2023/09/30 05:30:11;;;;;;;5.63;3.70;;;16.50;99.90;;;;;;5055479;28;20459;-83
2023/09/30 05:35:23;;;;;;;8.57;3.70;;;16.60;99.90;;;;;;5041684;28;21139;-84
2023/09/30 05:37:52;;;;;;;11.60;3.83;;;16.60;99.90;;;;;;5044532;28;21199;-84
2023/09/30 05:40:24;;;;;;;10.13;4.37;;;16.50;99.90;;;;;;5054969;28;20460;-84
2023/09/30 05:42:53;;;;;;;8.10;4.20;;;16.50;99.90;;;;;;5054578;28;20467;-84
2023/09/30 05:45:21;;;;;;;6.30;3.30;;;16.50;99.90;;;;;;5054782;28;20463;-85
2023/09/30 05:48:03;;;;;;;10.57;3.80;;;16.60;99.90;;;;;;5044692;28;20947;-84
2023/09/30 05:50:31;;;;;;;10.43;4.70;;;16.60;99.90;;;;;;5053425;28;20467;-83
2023/09/30 05:53:01;;;;;;;7.17;4.20;;;16.60;99.90;;;;;;5054262;28;20477;-86
2023/09/30 05:55:30;;;;;;;7.63;4.70;;;16.60;99.90;;;;;;5054957;28;20491;-84
2023/09/30 05:57:59;;;;;;;4.47;3.00;;;16.50;99.90;;;;;;5045789;28;20568;-86
2023/09/30 06:00:30;;;;;;;8.23;3.93;;;16.60;99.90;;;;;;5054995;28;20852;-86
2023/09/30 06:02:59;;;;;;;6.80;4.17;;;16.60;99.90;;;;;;5043965;28;20542;-84
2023/09/30 06:05:29;;;;;;;7.67;4.10;;;16.60;99.90;;;;;;5054676;28;20502;-84
2023/09/30 06:07:56;;;;;;;12.00;5.40;;;16.60;99.90;;;;;;5054152;28;20478;-84
2023/09/30 06:10:27;;;;;;;8.73;4.70;;;16.70;99.90;;;;;;5054652;28;21018;-84
2023/09/30 06:12:54;;;;;;;6.73;4.40;;;16.70;99.90;;;;;;5053250;28;20957;-86
2023/09/30 06:15:25;;;;;;;11.00;4.60;;;16.70;99.90;;;;;;5054638;28;20808;-86
2023/09/30 06:17:53;;;;;;;6.90;4.60;;;16.70;99.90;;;;;;5044626;28;20471;-85
2023/09/30 06:20:30;;;;;;;8.83;4.33;;;16.80;99.90;;;;;;5052057;28;20494;-84
2023/09/30 06:22:57;;;;;;;14.53;6.10;;;16.80;99.90;;;;;;5053621;28;20547;-84
2023/09/30 06:25:52;;;;;;;7.00;5.47;;;16.80;99.90;;;;;;5053885;28;20552;-84
2023/09/30 06:28:25;;;;;;;8.90;4.80;;;16.80;99.90;;;;;;5053871;28;20873;-84
2023/09/30 06:30:52;;;;;;;10.03;3.97;;;16.90;99.90;;;;;;5043707;28;20988;-84
2023/09/30 06:33:29;;;;;;;13.23;4.83;;;16.90;99.90;;;;;;5045591;28;20467;-85
2023/09/30 06:36:13;;;;;;;8.33;4.33;;;16.90;99.90;;;;;;5053807;28;20475;-83
2023/09/30 06:38:48;;;;;;;9.13;4.60;;;17.00;99.90;;;;;;5053991;28;20790;-84
2023/09/30 06:41:19;;;;;;;13.47;4.70;;;17.00;99.90;;;;;;5040986;28;20459;-83
2023/09/30 06:43:49;;;;;;;10.30;4.63;;;17.00;99.90;;;;;;5053728;28;20541;-83
2023/09/30 06:46:18;;;;;;;15.40;4.33;;;17.00;99.90;;;;;;5053603;28;20463;-83
2023/09/30 06:48:47;;;;;;;9.37;4.40;;;17.00;99.90;;;;;;5053545;28;20459;-85
2023/09/30 06:51:17;;;;;;;10.00;5.03;;;17.00;99.90;;;;;;5053457;28;20871;-84
2023/09/30 06:53:45;;;;;;;11.93;4.60;;;17.10;99.90;;;;;;5053867;28;21238;-85
2023/09/30 06:56:12;;;;;;;14.17;5.53;;;17.10;99.90;;;;;;5044745;28;20548;-84
2023/09/30 06:58:40;;;;;;;10.17;4.33;;;17.10;99.90;;;;;;5043410;28;20537;-86
2023/09/30 07:01:07;;;;;;;7.27;4.30;;;17.20;99.90;;;;;;5044975;28;20475;-84
2023/09/30 07:03:34;;;;;;;10.00;4.70;;;17.20;99.90;;;;;;5053792;28;20968;-85
2023/09/30 07:06:06;;;;;;;10.07;5.17;;;17.20;99.90;;;;;;5051074;28;20485;-84
2023/09/30 07:08:36;;;;;;;7.53;3.90;;;17.20;99.90;;;;;;5016631;28;20494;-84
2023/09/30 07:11:39;;;;;;;11.67;4.20;;;17.30;99.90;;;;;;5053706;28;20467;-85
2023/09/30 07:14:17;;;;;;;8.47;3.97;;;17.30;99.90;;;;;;5053309;28;20984;-84
2023/09/30 07:16:47;;;;;;;9.50;4.10;;;17.40;99.90;;;;;;5054368;28;20546;-84
2023/09/30 07:19:17;;;;;;;8.80;3.93;;;17.40;99.90;;;;;;5054775;28;20478;-83
2023/09/30 07:21:46;;;;;;;12.27;6.33;;;17.40;99.90;;;;;;5056532;28;20479;-83
2023/09/30 07:24:48;;;;;;;11.43;5.43;;;17.50;99.90;;;;;;5042669;28;20467;-83
2023/09/30 07:27:17;;;;;;;12.70;6.47;;;17.50;99.90;;;;;;4944656;28;20526;-83
2023/09/30 07:29:58;;;;;;;11.50;6.93;;;17.50;99.90;;;;;;4954818;29;21041;-83
2023/09/30 07:32:32;;;;;;;12.50;5.70;;;17.60;99.90;;;;;;4940027;28;20510;-83
2023/09/30 07:35:07;;;;;;;9.90;4.97;;;17.60;99.90;;;;;;4963335;28;20511;-83
2023/09/30 07:37:40;;;;;;;12.40;5.57;;;17.60;99.90;;;;;;5042489;28;20470;-83
2023/09/30 07:41:04;;;;;;;10.63;5.10;;;17.70;99.90;;;;;;5031512;28;20477;-82
2023/09/30 07:43:51;;;;;;;9.47;4.10;;;17.70;99.90;;;;;;5049255;28;20443;-82
2023/09/30 07:50:35;;;;;;;;;;;;;;;;;;;;;
2023/09/30 07:53:09;;;;;;;12.90;5.73;;;17.80;99.90;;;;;;5018059;28;20537;-83
2023/09/30 07:55:40;;;;;;;14.03;4.47;;;17.80;99.90;;;;;;5042987;28;20802;-83
2023/09/30 07:58:07;;;;;;;9.63;4.90;;;17.80;99.90;;;;;;5053619;28;20466;-83
2023/09/30 08:00:36;;;;;;;5.60;3.93;;;17.80;99.90;;;;;;5052282;28;20463;-83
2023/09/30 08:03:03;;;;;;;11.33;3.80;;;17.80;99.90;;;;;;5053552;28;20530;-83
2023/09/30 08:05:31;;;;;;;10.50;4.30;;;17.80;99.90;;;;;;5054085;28;20502;-85
2023/09/30 08:07:58;;;;;;;6.60;3.60;;;17.80;99.90;;;;;;5053350;28;20534;-85
2023/09/30 08:10:25;;;;;;;6.63;3.90;;;17.90;99.90;;;;;;5043719;28;20501;-85
2023/09/30 08:12:57;;;;;;;5.10;3.60;;;17.90;99.90;;;;;;5050258;28;20856;-85
2023/09/30 08:15:25;;;;;;;12.97;4.77;;;17.90;99.90;;;;;;5053646;28;20968;-85
2023/09/30 08:17:53;;;;;;;6.07;3.30;;;17.90;99.90;;;;;;5053529;28;20467;-85
2023/09/30 08:20:21;;;;;;;6.93;4.00;;;18.00;99.90;;;;;;5053904;28;20471;-84
2023/09/30 08:26:15;;;;;;;7.87;4.20;;;18.00;99.90;;;;;;4990301;28;20474;-84
2023/09/30 08:28:42;;;;;;;12.47;4.50;;;18.10;99.90;;;;;;5053059;28;20467;-85
2023/09/30 08:31:10;;;;;;;12.00;4.70;;;18.10;99.90;;;;;;5052720;28;20525;-84
2023/09/30 08:33:40;;;;;;;7.60;3.63;;;18.10;99.90;;;;;;5053205;28;20589;-85
2023/09/30 08:36:09;;;;;;;10.33;3.73;;;18.20;99.90;;;;;;5053891;28;20471;-84
2023/09/30 08:38:37;;;;;;;7.20;3.43;;;18.20;99.90;;;;;;5053475;28;20513;-85
2023/09/30 08:41:10;;;;;;;8.47;4.77;;;18.30;99.90;;;;;;5055027;28;20461;-84
2023/09/30 08:43:39;;;;;;;4.80;3.03;;;18.40;99.90;;;;;;5053168;28;20466;-85
2023/09/30 08:46:09;;;;;;;13.40;4.97;;;18.40;99.90;;;;;;5040903;28;20565;-85
2023/09/30 08:48:38;;;;;;;6.20;3.47;;;18.40;99.90;;;;;;5054557;28;21023;-84
2023/09/30 08:51:05;;;;;;;4.40;3.17;;;18.40;99.90;;;;;;5052298;28;20483;-84
2023/09/30 08:53:33;;;;;;;5.27;4.00;;;18.50;99.90;;;;;;5053759;28;20497;-84
2023/09/30 08:56:04;;;;;;;8.53;3.70;;;18.50;99.90;;;;;;5052647;28;20552;-84
2023/09/30 08:58:32;;;;;;;8.87;4.30;;;18.60;99.90;;;;;;5053516;28;20463;-84
2023/09/30 09:01:02;;;;;;;5.60;3.53;;;18.60;99.90;;;;;;5052682;28;20945;-84
2023/09/30 09:03:31;;;;;;;5.80;4.67;;;18.60;99.90;;;;;;5052313;28;20474;-85
2023/09/30 09:06:00;;;;;;;5.60;4.43;;;18.70;99.90;;;;;;5042914;28;20558;-85
2023/09/30 09:08:28;;;;;;;9.00;3.70;;;18.70;99.90;;;;;;5043115;28;20834;-85
2023/09/30 09:14:20;;;;;;;5.97;2.97;;;18.70;99.90;;;;;;5057554;28;20529;-84
2023/09/30 09:16:54;;;;;;;8.20;4.17;;;18.80;99.90;;;;;;5046028;28;21006;-84
2023/09/30 09:19:36;;;;;;;7.87;5.47;;;18.80;99.90;;;;;;5042627;28;20539;-84
2023/09/30 09:22:08;;;;;;;12.13;5.87;;;18.80;99.90;;;;;;5055802;28;20459;-85
2023/09/30 09:24:38;;;;;;;8.00;4.00;;;18.90;99.90;;;;;;5055764;28;20913;-84
2023/09/30 09:27:16;;;;;;;13.03;5.70;;;19.00;99.90;;;;;;5046902;28;20478;-84
2023/09/30 09:29:48;;;;;;;11.10;5.30;;;19.00;99.90;;;;;;5053762;28;20451;-85
2023/09/30 09:32:19;;;;;;;9.20;4.00;;;19.10;99.90;;;;;;5046212;28;20483;-85
2023/09/30 09:35:03;;;;;;;5.93;3.80;;;19.10;99.90;;;;;;5045840;28;20900;-85
2023/09/30 09:37:33;;;;;;;6.43;3.20;;;19.10;99.90;;;;;;5045344;28;20457;-84
2023/09/30 09:40:07;;;;;;;11.17;3.87;;;19.10;99.90;;;;;;5047483;28;20474;-84
2023/09/30 09:46:04;;;;;;;5.23;3.57;;;19.30;99.90;;;;;;4989852;28;20494;-84
2023/09/30 09:52:30;;;;;;;7.23;3.40;;;19.40;99.90;;;;;;5041043;28;20528;-86
2023/09/30 09:55:00;;;;;;;7.07;2.90;;;19.50;99.90;;;;;;5022420;28;20945;-86
2023/09/30 09:57:29;;;;;;;9.60;3.30;;;19.50;99.90;;;;;;5054068;28;20466;-86
2023/09/30 09:59:56;;;;;;;6.47;3.00;;;19.50;99.90;;;;;;5054360;28;20471;-86
2023/09/30 10:02:23;;;;;;;6.60;2.70;;;19.60;99.90;;;;;;5055132;28;20481;-86
2023/09/30 10:04:51;;;;;;;8.37;3.00;;;19.60;99.90;;;;;;5050870;28;20976;-86
2023/09/30 10:08:04;;;;;;;9.90;3.40;;;19.70;99.90;;;;;;5055101;28;20463;-85
2023/09/30 10:10:37;;;;;;;6.20;3.00;;;19.80;99.90;;;;;;5055006;28;20482;-84
2023/09/30 10:13:06;;;;;;;6.97;2.97;;;19.90;99.90;;;;;;5055404;28;20482;-86
2023/09/30 10:15:51;;;;;;;8.37;2.90;;;19.90;99.90;;;;;;5034993;28;20472;-85
2023/09/30 10:18:21;;;;;;;4.87;2.73;;;19.90;99.90;;;;;;5063609;28;20455;-85
2023/09/30 10:21:36;;;;;;;7.43;2.90;;;20.00;99.90;;;;;;5063109;28;20519;-86
2023/09/30 10:24:34;;;;;;;8.53;3.97;;;20.00;99.90;;;;;;5056060;28;20459;-84
2023/09/30 10:27:34;;;;;;;10.30;3.80;;;20.00;99.90;;;;;;5054732;28;20490;-86
2023/09/30 10:30:14;;;;;;;3.43;2.63;;;20.00;99.90;;;;;;5044047;28;20487;-86
2023/09/30 10:33:12;;;;;;;5.43;3.27;;;20.10;99.90;;;;;;5054693;28;20471;-85
2023/09/30 10:36:03;;;;;;;4.60;2.80;;;20.10;99.90;;;;;;5054879;28;20493;-82
2023/09/30 10:38:48;;;;;;;6.57;2.47;;;20.10;99.90;;;;;;5056784;28;20491;-84
2023/09/30 10:41:58;;;;;;;4.00;2.80;;;20.10;99.90;;;;;;5057644;28;20538;-85
2023/09/30 10:44:37;;;;;;;5.93;2.80;;;20.20;99.90;;;;;;5188101;22;20720;-85
2023/09/30 10:47:41;;;;;;;5.20;2.70;;;20.20;99.90;;;;;;5036628;28;20463;-85
2023/09/30 10:51:00;;;;;;;8.10;2.20;;;20.20;99.90;;;;;;5018538;28;20966;-84
2023/09/30 10:53:28;;;;;;;6.60;2.70;;;20.20;99.90;;;;;;5035611;28;20522;-86
2023/09/30 10:55:59;;;;;;;5.10;2.70;;;20.20;99.90;;;;;;5034914;28;20460;-84
2023/09/30 10:58:42;;;;;;;5.73;3.33;;;20.30;99.90;;;;;;5009172;28;20476;-85
2023/09/30 11:01:17;;;;;;;6.93;3.30;;;20.30;99.90;;;;;;5023224;28;20864;-85
2023/09/30 11:03:45;;;;;;;6.00;2.47;;;20.30;99.90;;;;;;5034279;28;20514;-84
2023/09/30 11:06:17;;;;;;;4.67;2.33;;;20.30;99.90;;;;;;5035709;28;20495;-85
2023/09/30 11:08:53;;;;;;;7.33;2.47;;;20.40;99.90;;;;;;5035176;28;20544;-85
2023/09/30 11:11:35;;;;;;;6.83;2.63;;;20.40;99.90;;;;;;5034811;28;20960;-85
2023/09/30 11:14:08;;;;;;;7.70;2.60;;;20.40;99.90;;;;;;5007721;28;20541;-85
2023/09/30 11:16:56;;;;;;;4.37;2.13;;;20.50;99.90;;;;;;5036586;28;20472;-85
2023/09/30 11:19:24;;;;;;;3.87;2.13;;;20.50;99.90;;;;;;5028243;28;21248;-85
2023/09/30 11:21:53;;;;;;;7.00;2.77;;;20.60;99.90;;;;;;5034908;28;20471;-84
2023/09/30 11:24:20;;;;;;;5.00;3.87;;;20.60;99.90;;;;;;5033898;28;20480;-84
2023/09/30 11:26:46;;;;;;;11.43;4.40;;;20.70;99.90;;;;;;5010524;28;20861;-84
2023/09/30 11:29:16;;;;;;;3.73;3.40;;;20.70;99.90;;;;;;5031199;28;20476;-84
2023/09/30 11:34:41;;;;;;;3.13;2.80;;;20.80;99.90;;;;;;5031256;28;20475;-84
2023/09/30 11:37:10;;;;;;;5.00;2.37;;;20.80;99.90;;;;;;5033162;28;20491;-83
2023/09/30 11:39:38;;;;;;;7.33;2.87;;;20.70;99.90;;;;;;5027525;28;20518;-84
2023/09/30 11:42:16;;;;;;;5.00;2.90;;;20.70;99.90;;;;;;5015303;28;20465;-84
2023/09/30 11:44:50;;;;;;;6.70;2.43;;;20.70;99.90;;;;;;5034553;28;20571;-85
2023/09/30 11:47:17;;;;;;;5.67;2.87;;;20.70;99.90;;;;;;5022721;28;20543;-84
2023/09/30 11:49:55;;;;;;;6.97;2.97;;;20.70;99.90;;;;;;5022813;28;20464;-85
2023/09/30 11:52:30;;;;;;;6.70;2.97;;;20.70;99.90;;;;;;5033734;28;20586;-85
2023/09/30 11:55:33;;;;;;;4.53;2.20;;;20.60;99.90;;;;;;5006621;28;20487;-84
2023/09/30 11:58:00;;;;;;;7.00;2.73;;;20.60;99.90;;;;;;5003963;28;20467;-85
2023/09/30 12:00:28;;;;;;;7.03;3.20;;;20.60;99.90;;;;;;5019338;28;20531;-85
2023/09/30 12:03:06;;;;;;;5.47;4.30;;;20.50;99.90;;;;;;5023239;28;20547;-84
2023/09/30 12:05:36;;;;;;;5.80;3.77;;;20.50;99.90;;;;;;5033077;28;20468;-84
2023/09/30 12:08:04;;;;;;;5.77;3.17;;;20.50;99.90;;;;;;5011895;28;20483;-84
2023/09/30 12:10:32;;;;;;;4.17;2.43;;;20.50;99.90;;;;;;5019428;28;20507;-84
2023/09/30 12:13:05;;;;;;;5.40;3.20;;;20.40;99.90;;;;;;5032872;28;20499;-84
2023/09/30 12:15:35;;;;;;;8.37;3.57;;;20.40;99.90;;;;;;5033574;28;20468;-83
2023/09/30 12:18:02;;;;;;;7.70;4.50;;;20.50;99.90;;;;;;5036432;28;20582;-84
2023/09/30 12:20:30;;;;;;;7.10;2.70;;;20.50;99.90;;;;;;5010901;28;20473;-83
2023/09/30 12:22:59;;;;;;;13.30;3.27;;;20.50;99.90;;;;;;5002784;28;20535;-85
2023/09/30 12:25:26;;;;;;;6.17;2.30;;;20.50;99.90;;;;;;5024475;28;20476;-84
2023/09/30 12:27:55;;;;;;;7.20;2.70;;;20.50;99.90;;;;;;5032313;28;20465;-84
2023/09/30 12:30:41;;;;;;;5.40;2.17;;;20.60;99.90;;;;;;5032367;28;20452;-84
2023/09/30 12:33:08;;;;;;;5.87;2.27;;;20.60;99.90;;;;;;5032727;28;20472;-84
2023/09/30 12:35:38;;;;;;;4.17;2.43;;;20.60;99.90;;;;;;5033730;28;20567;-84
2023/09/30 12:38:17;;;;;;;4.27;2.53;;;20.60;99.90;;;;;;5023781;28;20476;-85
2023/09/30 12:40:44;;;;;;;3.10;2.10;;;20.60;99.90;;;;;;5019038;28;20804;-84
2023/09/30 12:43:11;;;;;;;6.23;2.73;;;20.60;99.90;;;;;;5032769;28;20501;-85
2023/09/30 12:46:04;;;;;;;7.13;2.60;;;20.60;99.90;;;;;;5033918;28;20472;-86
2023/09/30 12:48:35;;;;;;;7.30;4.50;;;20.60;99.90;;;;;;5031710;28;20464;-86
2023/09/30 12:51:08;;;;;;;5.83;5.17;;;20.60;99.90;;;;;;5036554;28;20471;-85
2023/09/30 12:53:38;;;;;;;5.17;3.10;;;20.60;99.90;;;;;;5036284;28;20791;-85
2023/09/30 12:56:08;;;;;;;3.50;2.77;;;20.60;99.90;;;;;;5037385;28;20475;-86
2023/09/30 12:58:35;;;;;;;7.23;2.30;;;20.60;99.90;;;;;;5037180;28;20476;-84
2023/09/30 13:01:06;;;;;;;5.90;2.23;;;20.60;99.90;;;;;;5022918;28;20477;-83
2023/09/30 13:03:42;;;;;;;3.77;2.47;;;20.60;99.90;;;;;;5025682;28;20468;-85
2023/09/30 13:06:18;;;;;;;2.33;1.93;;;20.60;99.90;;;;;;5031885;28;20507;-84
2023/09/30 13:09:04;;;;;;;4.40;2.70;;;20.60;99.90;;;;;;5035020;28;20471;-84
2023/09/30 13:11:51;;;;;;;6.00;3.17;;;20.60;99.90;;;;;;5015194;28;20558;-83
2023/09/30 13:14:27;;;;;;;4.63;2.63;;;20.70;99.90;;;;;;5019022;28;20489;-85
2023/09/30 13:16:57;;;;;;;6.50;2.90;;;20.70;99.90;;;;;;5011763;28;20474;-84
2023/09/30 13:19:37;;;;;;;5.67;3.17;;;20.70;99.90;;;;;;5034827;28;20551;-83
2023/09/30 13:22:08;;;;;;;6.20;2.37;;;20.70;99.90;;;;;;5019772;28;20499;-84
2023/09/30 13:24:39;;;;;;;5.33;3.27;;;20.70;99.90;;;;;;5007864;28;20477;-85
2023/09/30 13:27:06;;;;;;;6.40;4.37;;;20.70;99.90;;;;;;5024307;28;20502;-85
2023/09/30 13:29:41;;;;;;;4.30;3.87;;;20.70;99.90;;;;;;5016482;28;20480;-84
2023/09/30 13:32:49;;;;;;;5.67;3.00;;;20.80;99.90;;;;;;5015932;28;20471;-85
2023/09/30 13:35:52;;;;;;;5.50;3.00;;;20.80;99.90;;;;;;5024168;28;20472;-84
2023/09/30 13:38:20;;;;;;;6.10;2.80;;;20.80;99.90;;;;;;4939215;28;20471;-85
2023/09/30 13:40:54;;;;;;;2.90;2.00;;;20.80;99.90;;;;;;5032191;28;20498;-85